createdAt,value
2023-01-30T00:01:13.034Z,101574.00
2023-01-30T00:03:39.582Z,101548.84
2023-01-30T00:06:06.275Z,101476.97
2023-01-30T00:08:32.847Z,101588.16
2023-01-30T00:11:07.622Z,101561.81
2023-01-30T00:13:34.567Z,101521.59
2023-01-30T00:16:01.546Z,101565.00
2023-01-30T00:18:28.845Z,101557.94
2023-01-30T00:20:59.644Z,101495.13
2023-01-30T00:23:27.951Z,101493.47
2023-01-30T00:25:55.108Z,101468.25
2023-01-30T00:28:22.367Z,101487.72
2023-01-30T00:30:52.986Z,101545.78
2023-01-30T00:33:21.097Z,101439.97
2023-01-30T00:35:49.521Z,101550.50
2023-01-30T00:38:16.622Z,101488.56
2023-01-30T00:40:44.197Z,101524.00
2023-01-30T00:43:32.592Z,101451.91
2023-01-30T00:46:20.238Z,101541.53
2023-01-30T00:48:46.718Z,101546.16
2023-01-30T00:51:13.390Z,101519.97
2023-01-30T00:53:39.983Z,101524.25
2023-01-30T00:56:07.024Z,101432.59
2023-01-30T00:58:33.865Z,101525.47
2023-01-30T01:01:00.475Z,101509.25
2023-01-30T01:03:27.079Z,101429.97
2023-01-30T01:05:53.635Z,101441.34
2023-01-30T01:08:22.530Z,101491.41
2023-01-30T01:10:49.257Z,101474.53
2023-01-30T01:13:15.875Z,101390.50
2023-01-30T01:15:42.427Z,101500.78
2023-01-30T01:18:09.141Z,101444.97
2023-01-30T01:20:35.680Z,101497.19
2023-01-30T01:23:02.957Z,101497.19
2023-01-30T01:25:29.635Z,101401.63
2023-01-30T01:27:56.402Z,101502.56
2023-01-30T01:30:24.028Z,101385.63
2023-01-30T01:32:50.581Z,101396.28
2023-01-30T01:35:17.518Z,101478.41
2023-01-30T01:37:44.362Z,101417.25
2023-01-30T01:40:36.588Z,101499.28
2023-01-30T01:43:19.293Z,101370.25
2023-01-30T01:45:49.674Z,101456.78
2023-01-30T01:48:26.260Z,101374.44
2023-01-30T01:51:16.608Z,101384.78
2023-01-30T01:53:58.218Z,101361.00
2023-01-30T01:56:25.753Z,101443.63
2023-01-30T01:59:01.549Z,101366.44
2023-01-30T02:01:29.637Z,101340.69
2023-01-30T02:04:01.910Z,101341.06
2023-01-30T02:06:30.121Z,101360.81
2023-01-30T02:09:04.749Z,101367.28
2023-01-30T02:11:42.306Z,101447.41
2023-01-30T02:14:11.171Z,101392.72
2023-01-30T02:16:38.249Z,101349.41
2023-01-30T02:19:23.996Z,101397.22
2023-01-30T02:22:19.932Z,101439.25
2023-01-30T02:25:24.233Z,101433.16
2023-01-30T02:28:17.534Z,101340.38
2023-01-30T02:31:06.021Z,101425.09
2023-01-30T02:33:48.690Z,101310.22
2023-01-30T02:36:29.013Z,101410.25
2023-01-30T02:39:14.482Z,101323.91
2023-01-30T02:41:56.015Z,101313.22
2023-01-30T02:44:48.909Z,101407.66
2023-01-30T02:47:23.806Z,101402.31
2023-01-30T02:49:58.400Z,101364.66
2023-01-30T02:52:26.875Z,101310.84
2023-01-30T02:54:53.817Z,101293.09
2023-01-30T02:57:23.173Z,101340.75
2023-01-30T02:59:57.472Z,101363.25
2023-01-30T03:02:46.370Z,101381.22
2023-01-30T03:05:16.608Z,101382.06
2023-01-30T03:08:03.944Z,101376.91
2023-01-30T03:10:40.745Z,101362.44
2023-01-30T03:13:17.404Z,101368.22
2023-01-30T03:15:57.307Z,101274.78
2023-01-30T03:18:24.193Z,101279.88
2023-01-30T03:20:52.247Z,101199.91
2023-01-30T03:23:18.817Z,101354.47
2023-01-30T03:25:47.538Z,101344.81
2023-01-30T03:28:18.268Z,101352.19
2023-01-30T03:30:44.923Z,101331.47
2023-01-30T03:33:11.549Z,101336.97
2023-01-30T03:35:40.621Z,101231.88
2023-01-30T03:38:07.255Z,101322.09
2023-01-30T03:40:34.939Z,101314.97
2023-01-30T03:43:01.879Z,101251.03
2023-01-30T03:45:28.500Z,101232.47
2023-01-30T03:47:55.201Z,101319.53
2023-01-30T03:50:21.765Z,101308.06
2023-01-30T03:52:48.320Z,101321.38
2023-01-30T03:55:18.620Z,101208.22
2023-01-30T03:57:45.480Z,101327.34
2023-01-30T04:00:12.735Z,101277.03
2023-01-30T04:02:48.143Z,101323.75
2023-01-30T04:05:18.395Z,101224.75
2023-01-30T04:07:51.358Z,101337.44
2023-01-30T04:10:19.975Z,101322.16
2023-01-30T04:12:47.311Z,101227.47
2023-01-30T04:15:13.953Z,101246.03
2023-01-30T04:17:59.274Z,101254.38
2023-01-30T04:20:45.489Z,101272.78
2023-01-30T04:23:12.815Z,101295.78
2023-01-30T04:25:40.082Z,101212.59
2023-01-30T04:28:09.139Z,101226.06
2023-01-30T04:30:37.800Z,101294.31
2023-01-30T04:33:27.093Z,101234.22
2023-01-30T04:35:55.096Z,101326.88
2023-01-30T04:38:22.720Z,101322.59
2023-01-30T04:40:50.492Z,101232.97
2023-01-30T04:43:18.665Z,101312.16
2023-01-30T04:46:04.677Z,101298.56
2023-01-30T04:48:31.335Z,101316.88
2023-01-30T04:51:00.723Z,101225.53
2023-01-30T04:53:27.676Z,101206.88
2023-01-30T04:55:54.425Z,101288.56
2023-01-30T04:58:21.347Z,101314.88
2023-01-30T05:00:48.244Z,101223.91
2023-01-30T05:03:15.760Z,101307.75
2023-01-30T05:05:42.358Z,101315.03
2023-01-30T05:08:09.460Z,101318.84
2023-01-30T05:10:36.045Z,101223.22
2023-01-30T05:13:06.389Z,101311.28
2023-01-30T05:15:33.614Z,101260.03
2023-01-30T05:18:00.968Z,101312.53
2023-01-30T05:20:27.632Z,101310.31
2023-01-30T05:22:54.308Z,101324.91
2023-01-30T05:25:21.400Z,101314.22
2023-01-30T05:27:47.972Z,101241.34
2023-01-30T05:30:14.699Z,101321.41
2023-01-30T05:32:41.243Z,101323.22
2023-01-30T05:35:08.418Z,101245.19
2023-01-30T05:37:34.987Z,101325.81
2023-01-30T05:40:01.568Z,101319.16
2023-01-30T05:42:28.079Z,101301.06
2023-01-30T05:44:54.701Z,101325.22
2023-01-30T05:47:21.277Z,101255.69
2023-01-30T05:49:47.771Z,101250.19
2023-01-30T05:52:14.319Z,101313.13
2023-01-30T05:54:40.916Z,101297.84
2023-01-30T05:57:07.541Z,101321.06
2023-01-30T05:59:34.132Z,101318.50
2023-01-30T06:02:00.641Z,101245.66
2023-01-30T06:04:27.208Z,101336.53
2023-01-30T06:06:53.673Z,101351.13
2023-01-30T06:09:20.232Z,101197.28
2023-01-30T06:11:46.807Z,101321.22
2023-01-30T06:14:13.424Z,101355.25
2023-01-30T06:16:40.026Z,101347.72
2023-01-30T06:19:07.669Z,101348.59
2023-01-30T06:21:34.239Z,101314.50
2023-01-30T06:24:00.849Z,101362.53
2023-01-30T06:26:27.405Z,101347.19
2023-01-30T06:28:53.919Z,101329.69
2023-01-30T06:31:20.485Z,101382.38
2023-01-30T06:33:48.904Z,101383.44
2023-01-30T06:36:15.631Z,101281.97
2023-01-30T06:38:42.116Z,101368.91
2023-01-30T06:41:08.658Z,101385.97
2023-01-30T06:43:35.158Z,101387.59
2023-01-30T06:46:01.726Z,101331.81
2023-01-30T06:48:28.330Z,101397.28
2023-01-30T06:50:54.836Z,101338.69
2023-01-30T06:53:22.436Z,101394.69
2023-01-30T06:55:48.977Z,101395.25
2023-01-30T06:58:15.715Z,101372.75
2023-01-30T07:00:43.103Z,101381.41
2023-01-30T07:03:15.565Z,101375.06
2023-01-30T07:05:43.708Z,101386.44
2023-01-30T07:08:11.211Z,101394.16
2023-01-30T07:10:38.485Z,101392.00
2023-01-30T07:13:05.078Z,101384.88
2023-01-30T07:15:32.338Z,101388.41
2023-01-30T07:17:59.611Z,101167.00
2023-01-30T07:20:26.447Z,101386.25
2023-01-30T07:22:54.334Z,101412.34
2023-01-30T07:25:22.496Z,101313.84
2023-01-30T07:27:54.126Z,101407.38
2023-01-30T07:30:20.954Z,101419.25
2023-01-30T07:32:52.603Z,101427.06
2023-01-30T07:35:19.617Z,101419.88
2023-01-30T07:37:47.934Z,101387.81
2023-01-30T07:40:15.383Z,101412.81
2023-01-30T07:42:41.914Z,101419.28
2023-01-30T07:45:09.071Z,101369.84
2023-01-30T07:47:35.640Z,101429.75
2023-01-30T07:50:02.415Z,101399.41
2023-01-30T07:52:28.931Z,101327.34
2023-01-30T07:54:55.448Z,101322.66
2023-01-30T07:57:22.081Z,101397.63
2023-01-30T07:59:48.616Z,101300.47
2023-01-30T08:02:15.127Z,101383.34
2023-01-30T08:04:41.812Z,101325.06
2023-01-30T08:07:10.005Z,101434.88
2023-01-30T08:09:36.478Z,101326.78
2023-01-30T08:12:03.030Z,101343.69
2023-01-30T08:14:29.641Z,101444.75
2023-01-30T08:16:57.797Z,101440.03
2023-01-30T08:19:24.316Z,101438.41
2023-01-30T08:21:50.850Z,101406.56
2023-01-30T08:24:17.310Z,101428.34
2023-01-30T08:26:44.015Z,101376.44
2023-01-30T08:29:10.551Z,101442.28
2023-01-30T08:31:37.149Z,101338.16
2023-01-30T08:34:03.646Z,101333.69
2023-01-30T08:36:30.173Z,101387.09
2023-01-30T08:38:56.702Z,101473.53
2023-01-30T08:41:23.162Z,101480.34
2023-01-30T08:43:49.661Z,101466.00
2023-01-30T08:46:17.390Z,101474.44
2023-01-30T08:48:49.982Z,101315.50
2023-01-30T08:51:16.840Z,101497.38
2023-01-30T08:53:43.375Z,101485.50
2023-01-30T08:56:09.916Z,101502.03
2023-01-30T08:58:36.836Z,101502.25
2023-01-30T09:01:07.090Z,101425.41
2023-01-30T09:03:33.863Z,101492.44
2023-01-30T09:06:00.448Z,101490.09
2023-01-30T09:08:26.974Z,101389.81
2023-01-30T09:10:57.925Z,101496.16
2023-01-30T09:13:24.468Z,101484.22
2023-01-30T09:15:51.012Z,101461.06
2023-01-30T09:18:17.540Z,101472.84
2023-01-30T09:20:44.069Z,101506.59
2023-01-30T09:23:10.554Z,101510.41
2023-01-30T09:25:37.670Z,101402.53
2023-01-30T09:28:04.307Z,101530.78
2023-01-30T09:30:30.897Z,101412.84
2023-01-30T09:32:57.486Z,101524.97
2023-01-30T09:35:23.953Z,101510.47
2023-01-30T09:37:52.896Z,101419.19
2023-01-30T09:40:27.129Z,101532.44
2023-01-30T09:43:00.199Z,101536.03
2023-01-30T09:45:53.403Z,101530.00
2023-01-30T09:48:27.055Z,101518.91
2023-01-30T09:51:08.859Z,101533.13
2023-01-30T09:53:56.895Z,101533.06
2023-01-30T09:56:24.101Z,101536.97
2023-01-30T09:59:04.250Z,101442.44
2023-01-30T10:01:36.690Z,101457.69
2023-01-30T10:04:25.099Z,101556.28
2023-01-30T10:07:05.762Z,101553.97
2023-01-30T10:09:40.335Z,101433.50
2023-01-30T10:12:42.874Z,101571.66
2023-01-30T10:15:38.174Z,101556.53
2023-01-30T10:18:36.108Z,101561.66
2023-01-30T10:21:17.491Z,101523.13
2023-01-30T10:24:04.452Z,101563.06
2023-01-30T10:26:31.959Z,101565.34
2023-01-30T10:29:06.558Z,101572.38
2023-01-30T10:32:03.393Z,101555.34
2023-01-30T10:34:36.627Z,101560.94
2023-01-30T10:37:11.226Z,101464.09
2023-01-30T10:39:55.189Z,101558.53
2023-01-30T10:42:43.564Z,101531.50
2023-01-30T10:45:15.034Z,101542.09
2023-01-30T10:47:51.873Z,101480.97
2023-01-30T10:50:26.976Z,101564.84
2023-01-30T10:52:59.695Z,101559.47
2023-01-30T10:55:38.071Z,101547.50
2023-01-30T10:58:32.508Z,101572.81
2023-01-30T11:01:12.155Z,101577.34
2023-01-30T11:03:56.276Z,101463.78
2023-01-30T11:06:25.346Z,101559.41
2023-01-30T11:08:53.884Z,101472.09
2023-01-30T11:11:35.736Z,101565.34
2023-01-30T11:14:02.310Z,101574.66
2023-01-30T11:16:29.261Z,101503.88
2023-01-30T11:21:55.001Z,101578.63
2023-01-30T11:24:31.123Z,101564.91
2023-01-30T11:27:19.277Z,101581.44
2023-01-30T11:29:46.426Z,101485.06
2023-01-30T11:32:19.832Z,101519.44
2023-01-30T11:35:03.757Z,101561.59
2023-01-30T11:37:33.004Z,101583.50
2023-01-30T11:39:59.564Z,101572.78
2023-01-30T11:42:31.362Z,101575.72
2023-01-30T11:45:16.270Z,101562.47
2023-01-30T11:47:57.645Z,101567.66
2023-01-30T11:50:36.420Z,101481.97
2023-01-30T11:53:20.679Z,101562.97
2023-01-30T11:56:02.310Z,101554.59
2023-01-30T11:58:34.367Z,101583.66
2023-01-30T12:01:02.193Z,101546.78
2023-01-30T12:03:30.314Z,101570.91
2023-01-30T12:05:58.901Z,101494.63
2023-01-30T12:08:43.829Z,101584.91
2023-01-30T12:11:46.025Z,101580.47
2023-01-30T12:14:27.516Z,101569.72
2023-01-30T12:17:12.901Z,101594.09
2023-01-30T12:20:03.841Z,101477.72
2023-01-30T12:22:30.341Z,101587.94
2023-01-30T12:25:03.719Z,101581.41
2023-01-30T12:28:01.880Z,101594.91
2023-01-30T12:30:47.184Z,101584.66
2023-01-30T12:35:57.175Z,101594.56
2023-01-30T12:38:45.931Z,101487.69
2023-01-30T12:41:20.679Z,101610.22
2023-01-30T12:44:18.392Z,101620.50
2023-01-30T12:46:58.425Z,101602.59
2023-01-30T12:49:31.883Z,101530.66
2023-01-30T12:52:07.232Z,101621.78
2023-01-30T12:54:42.695Z,101594.53
2023-01-30T12:57:24.702Z,101595.16
2023-01-30T13:00:00.429Z,101619.91
2023-01-30T13:02:52.784Z,101611.44
2023-01-30T13:05:22.391Z,101619.66
2023-01-30T13:07:57.208Z,101610.72
2023-01-30T13:10:51.877Z,101630.66
2023-01-30T13:13:52.399Z,101631.72
2023-01-30T13:16:50.333Z,101637.69
2023-01-30T13:19:25.499Z,101550.31
2023-01-30T13:22:13.217Z,101551.38
2023-01-30T13:24:46.788Z,101649.13
2023-01-30T13:27:19.101Z,101567.41
2023-01-30T13:29:47.907Z,101583.25
2023-01-30T13:32:37.909Z,101662.31
2023-01-30T13:35:09.725Z,101564.94
2023-01-30T13:37:38.083Z,101652.84
2023-01-30T13:40:17.490Z,101643.28
2023-01-30T13:42:59.548Z,101587.78
2023-01-30T13:45:32.324Z,101686.88
2023-01-30T13:48:34.822Z,101683.97
2023-01-30T13:51:26.371Z,101614.81
2023-01-30T13:54:30.707Z,101696.63
2023-01-30T13:57:08.301Z,101614.41
2023-01-30T13:59:46.971Z,101711.34
2023-01-30T14:02:19.536Z,101621.28
2023-01-30T14:04:47.021Z,101720.78
2023-01-30T14:07:49.061Z,101718.97
2023-01-30T14:10:20.506Z,101716.38
2023-01-30T14:12:50.350Z,101737.84
2023-01-30T14:15:18.690Z,101734.34
2023-01-30T14:17:57.455Z,101738.69
2023-01-30T14:20:27.187Z,101714.31
2023-01-30T14:22:59.082Z,101705.19
2023-01-30T14:25:25.641Z,101745.69
2023-01-30T14:27:55.289Z,101714.72
2023-01-30T14:30:49.354Z,101767.53
2023-01-30T14:33:21.803Z,101764.84
2023-01-30T14:35:58.250Z,101680.16
2023-01-30T14:38:31.854Z,101781.56
2023-01-30T14:40:58.453Z,101771.22
2023-01-30T14:43:43.237Z,101775.78
2023-01-30T14:46:18.932Z,101772.81
2023-01-30T14:48:50.034Z,101784.28
2023-01-30T14:51:28.768Z,101783.09
2023-01-30T14:54:16.782Z,101795.50
2023-01-30T14:57:01.160Z,101786.81
2023-01-30T14:59:33.523Z,101792.28
2023-01-30T15:02:14.679Z,101699.78
2023-01-30T15:04:56.590Z,101815.75
2023-01-30T15:07:51.630Z,101819.25
2023-01-30T15:10:40.867Z,101667.78
2023-01-30T15:13:26.126Z,101827.59
2023-01-30T15:16:17.433Z,101837.97
2023-01-30T15:19:06.087Z,101834.97
2023-01-30T15:21:40.533Z,101845.16
2023-01-30T15:24:30.845Z,101738.97
2023-01-30T15:27:30.816Z,101846.81
2023-01-30T15:30:17.222Z,101756.28
2023-01-30T15:32:44.656Z,101868.38
2023-01-30T15:35:11.089Z,101869.13
2023-01-30T15:37:51.316Z,101830.44
2023-01-30T15:40:19.576Z,101885.09
2023-01-30T15:43:01.068Z,101861.66
2023-01-30T15:45:48.799Z,101890.03
2023-01-30T15:48:25.738Z,101889.59
2023-01-30T15:50:56.133Z,101894.66
2023-01-30T15:53:28.805Z,101804.34
2023-01-30T15:55:55.645Z,101899.81
2023-01-30T15:58:23.965Z,101895.38
2023-01-30T16:01:00.044Z,101815.13
2023-01-30T16:03:41.388Z,101912.84
2023-01-30T16:06:22.384Z,101836.13
2023-01-30T16:09:14.714Z,101902.16
2023-01-30T16:11:43.231Z,101816.41
2023-01-30T16:14:15.049Z,101892.88
2023-01-30T16:16:57.642Z,101925.19
2023-01-30T16:19:30.983Z,101816.59
2023-01-30T16:22:05.265Z,101915.75
2023-01-30T16:24:35.661Z,101853.91
2023-01-30T16:27:06.429Z,101847.44
2023-01-30T16:29:44.862Z,101864.41
2023-01-30T16:32:14.988Z,101865.19
2023-01-30T16:34:41.540Z,101956.06
2023-01-30T16:37:20.165Z,101964.19
2023-01-30T16:40:13.599Z,101930.44
2023-01-30T16:42:40.912Z,101951.03
2023-01-30T16:45:43.118Z,101882.22
2023-01-30T16:48:23.531Z,101983.06
2023-01-30T16:50:59.647Z,101986.34
2023-01-30T16:53:30.585Z,101995.41
2023-01-30T16:56:07.469Z,102004.44
2023-01-30T16:58:36.597Z,101939.41
2023-01-30T17:01:06.657Z,101879.94
2023-01-30T17:03:36.947Z,101914.13
2023-01-30T17:06:12.424Z,102016.25
2023-01-30T17:08:58.089Z,101962.69
2023-01-30T17:11:32.272Z,102043.72
2023-01-30T17:14:22.703Z,102031.56
2023-01-30T17:17:07.539Z,102010.84
2023-01-30T17:19:36.081Z,102022.09
2023-01-30T17:22:06.537Z,102051.28
2023-01-30T17:24:35.852Z,102045.44
2023-01-30T17:27:04.408Z,102045.97
2023-01-30T17:29:42.390Z,102051.81
2023-01-30T17:32:12.178Z,101949.84
2023-01-30T17:34:41.019Z,102053.88
2023-01-30T17:37:21.254Z,101985.16
2023-01-30T17:39:48.645Z,101977.06
2023-01-30T17:42:18.546Z,101999.31
2023-01-30T17:44:45.129Z,101971.59
2023-01-30T17:47:12.508Z,102060.56
2023-01-30T17:49:40.106Z,102027.84
2023-01-30T17:52:07.010Z,102085.63
2023-01-30T17:54:33.626Z,102067.38
2023-01-30T17:57:03.028Z,101996.22
2023-01-30T17:59:30.333Z,102090.94
2023-01-30T18:01:56.970Z,101985.19
2023-01-30T18:04:23.916Z,102089.38
2023-01-30T18:06:54.220Z,102075.81
2023-01-30T18:09:24.274Z,102106.22
2023-01-30T18:11:51.359Z,102126.63
2023-01-30T18:14:18.475Z,102120.53
2023-01-30T18:16:45.628Z,102132.56
2023-01-30T18:19:14.959Z,102127.59
2023-01-30T18:21:45.073Z,102116.69
2023-01-30T18:24:14.835Z,102112.72
2023-01-30T18:26:42.567Z,102143.28
2023-01-30T18:29:09.870Z,101975.97
2023-01-30T18:31:38.049Z,102138.84
2023-01-30T18:34:05.058Z,102099.50
2023-01-30T18:36:34.004Z,102139.22
2023-01-30T18:39:01.205Z,102115.81
2023-01-30T18:41:29.183Z,102113.50
2023-01-30T18:43:58.347Z,102042.13
2023-01-30T18:46:25.939Z,102132.00
2023-01-30T18:48:52.673Z,102117.56
2023-01-30T18:51:24.752Z,102156.09
2023-01-30T18:53:52.773Z,102118.56
2023-01-30T18:56:29.355Z,102144.78
2023-01-30T18:58:56.814Z,102148.69
2023-01-30T19:01:27.219Z,102107.25
2023-01-30T19:03:56.322Z,102063.25
2023-01-30T19:06:23.624Z,102136.63
2023-01-30T19:08:51.342Z,102166.00
2023-01-30T19:11:39.697Z,102166.75
2023-01-30T19:14:10.001Z,102115.78
2023-01-30T19:16:38.746Z,102081.75
2023-01-30T19:19:06.716Z,102135.00
2023-01-30T19:21:34.323Z,102115.66
2023-01-30T19:24:06.690Z,102133.00
2023-01-30T19:26:34.013Z,102093.25
2023-01-30T19:29:00.657Z,102057.91
2023-01-30T19:31:27.432Z,102165.09
2023-01-30T19:33:59.167Z,102185.16
2023-01-30T19:36:27.471Z,102052.47
2023-01-30T19:38:54.756Z,102174.91
2023-01-30T19:41:27.037Z,102089.09
2023-01-30T19:43:55.286Z,102174.53
2023-01-30T19:46:22.549Z,102198.03
2023-01-30T19:48:50.365Z,102198.13
2023-01-30T19:51:21.621Z,102203.03
2023-01-30T19:53:59.579Z,101974.13
2023-01-30T19:56:27.973Z,102130.16
2023-01-30T19:58:57.172Z,102212.25
2023-01-30T20:01:27.411Z,102194.56
2023-01-30T20:03:54.435Z,102153.19
2023-01-30T20:06:22.995Z,102217.72
2023-01-30T20:08:55.027Z,102223.69
2023-01-30T20:11:22.096Z,102149.47
2023-01-30T20:13:49.466Z,102202.44
2023-01-30T20:16:20.593Z,102177.75
2023-01-30T20:18:58.872Z,102111.31
2023-01-30T20:21:27.247Z,102173.03
2023-01-30T20:23:54.886Z,102206.78
2023-01-30T20:26:24.292Z,102220.22
2023-01-30T20:28:51.328Z,102225.91
2023-01-30T20:31:23.072Z,102125.22
2023-01-30T20:33:49.686Z,102100.63
2023-01-30T20:36:19.167Z,102227.38
2023-01-30T20:38:47.614Z,102112.66
2023-01-30T20:41:16.782Z,102125.88
2023-01-30T20:43:49.198Z,102235.00
2023-01-30T20:46:27.519Z,102233.09
2023-01-30T20:48:58.159Z,102237.25
2023-01-30T20:51:27.328Z,102203.66
2023-01-30T20:53:58.533Z,102201.06
2023-01-30T20:56:27.385Z,102204.47
2023-01-30T20:58:54.013Z,102237.16
2023-01-30T21:01:23.260Z,102137.75
2023-01-30T21:03:52.194Z,102205.03
2023-01-30T21:06:42.531Z,102247.34
2023-01-30T21:09:29.661Z,102191.00
2023-01-30T21:11:56.324Z,102199.00
2023-01-30T21:14:24.574Z,102251.88
2023-01-30T21:16:52.908Z,102132.03
2023-01-30T21:19:19.860Z,102132.22
2023-01-30T21:21:53.335Z,102250.06
2023-01-30T21:24:23.671Z,102130.41
2023-01-30T21:26:50.826Z,102238.34
2023-01-30T21:29:21.185Z,102139.28
2023-01-30T21:31:47.902Z,102225.13
2023-01-30T21:34:14.691Z,102208.28
2023-01-30T21:36:41.559Z,102157.88
2023-01-30T21:39:31.338Z,102263.19
2023-01-30T21:42:16.604Z,102170.88
2023-01-30T21:44:43.195Z,102265.84
2023-01-30T21:47:09.735Z,102229.69
2023-01-30T21:49:37.023Z,102275.09
2023-01-30T21:52:04.021Z,102258.03
2023-01-30T21:54:30.684Z,102238.59
2023-01-30T21:56:57.227Z,102239.34
2023-01-30T21:59:23.755Z,102264.06
2023-01-30T22:01:50.909Z,102156.94
2023-01-30T22:04:17.832Z,102156.97
2023-01-30T22:06:44.581Z,102251.25
2023-01-30T22:09:13.513Z,102146.84
2023-01-30T22:11:40.024Z,102147.22
2023-01-30T22:14:06.723Z,102225.19
2023-01-30T22:16:33.814Z,102231.28
2023-01-30T22:19:03.045Z,102198.88
2023-01-30T22:21:33.191Z,102244.91
2023-01-30T22:24:01.741Z,102274.28
2023-01-30T22:26:28.448Z,102156.97
2023-01-30T22:28:56.669Z,102137.63
2023-01-30T22:31:24.900Z,102140.25
2023-01-30T22:33:54.078Z,102205.22
2023-01-30T22:36:23.889Z,102153.69
2023-01-30T22:38:50.833Z,102220.34
2023-01-30T22:41:19.983Z,102160.75
2023-01-30T22:43:52.725Z,102247.81
2023-01-30T22:46:19.952Z,102167.53
2023-01-30T22:48:46.918Z,102246.81
2023-01-30T22:51:15.125Z,102262.47
2023-01-30T22:53:44.581Z,102261.78
2023-01-30T22:56:19.875Z,102166.63
2023-01-30T22:58:47.280Z,102245.22
2023-01-30T23:01:21.251Z,102252.22
2023-01-30T23:03:52.661Z,102222.50
2023-01-30T23:06:19.602Z,102180.53
2023-01-30T23:08:48.185Z,102201.75
2023-01-30T23:11:22.890Z,102257.97
2023-01-30T23:13:51.951Z,102151.16
2023-01-30T23:16:21.774Z,102201.41
2023-01-30T23:18:55.286Z,102142.00
2023-01-30T23:21:31.728Z,102238.56
2023-01-30T23:24:00.940Z,102227.25
2023-01-30T23:26:30.709Z,102147.66
2023-01-30T23:28:58.132Z,102146.88
2023-01-30T23:31:26.519Z,102138.38
2023-01-30T23:34:05.337Z,102143.22
2023-01-30T23:36:33.069Z,102236.47
2023-01-30T23:39:00.927Z,102122.63
2023-01-30T23:41:30.553Z,102234.25
2023-01-30T23:43:58.556Z,102256.38
2023-01-30T23:46:30.967Z,102124.41
2023-01-30T23:49:00.859Z,102148.50
2023-01-30T23:51:29.563Z,102191.41
2023-01-30T23:53:56.707Z,102230.59
2023-01-30T23:56:25.691Z,102197.47
2023-01-30T23:58:52.283Z,102182.13
